createdAt,value
2017-04-05T00:01:04.013Z,8.10
2017-04-05T00:02:09.400Z,7.55
2017-04-05T00:03:14.137Z,9.05
2017-04-05T00:04:20.409Z,8.28
2017-04-05T00:05:25.278Z,6.62
2017-04-05T00:06:30.756Z,6.32
2017-04-05T00:07:36.932Z,6.18
2017-04-05T00:08:41.692Z,6.15
2017-04-05T00:09:47.160Z,5.67
2017-04-05T00:10:52.452Z,6.77
2017-04-05T00:11:58.449Z,6.22
2017-04-05T00:13:03.132Z,7.52
2017-04-05T00:14:07.865Z,7.43
2017-04-05T00:15:14.290Z,7.28
2017-04-05T00:16:19.202Z,7.27
2017-04-05T00:17:25.356Z,7.33
2017-04-05T00:18:30.172Z,7.30
2017-04-05T00:19:35.806Z,7.48
2017-04-05T00:20:41.376Z,7.57
2017-04-05T00:21:47.665Z,7.43
2017-04-05T00:22:52.536Z,7.88
2017-04-05T00:23:57.199Z,7.68
2017-04-05T00:25:02.735Z,7.83
2017-04-05T00:26:08.429Z,8.30
2017-04-05T00:27:15.697Z,7.82
2017-04-05T00:28:20.597Z,7.33
2017-04-05T00:29:26.219Z,8.20
2017-04-05T00:30:31.873Z,7.68
2017-04-05T00:31:38.223Z,7.53
2017-04-05T00:32:42.989Z,7.63
2017-04-05T00:33:48.505Z,8.05
2017-04-05T00:34:54.042Z,7.43
2017-04-05T00:36:00.313Z,7.53
2017-04-05T00:37:05.010Z,7.90
2017-04-05T00:38:10.777Z,7.53
2017-04-05T00:39:16.265Z,6.90
2017-04-05T00:40:21.829Z,7.40
2017-04-05T00:41:27.217Z,7.90
2017-04-05T00:42:32.652Z,7.28
2017-04-05T00:43:37.591Z,7.67
2017-04-05T00:44:43.112Z,7.03
2017-04-05T00:45:48.630Z,7.60
2017-04-05T00:46:54.877Z,8.25
2017-04-05T00:47:59.997Z,7.12
2017-04-05T00:49:05.466Z,7.22
2017-04-05T00:50:11.067Z,7.67
2017-04-05T00:51:16.714Z,7.57
2017-04-05T00:52:22.168Z,7.12
2017-04-05T00:53:28.574Z,8.22
2017-04-05T00:54:34.114Z,7.90
2017-04-05T00:55:46.680Z,7.78
2017-04-05T00:56:53.029Z,8.03
2017-04-05T00:57:57.732Z,6.70
2017-04-05T00:59:03.328Z,6.73
2017-04-05T01:00:09.080Z,6.47
2017-04-05T01:01:14.512Z,6.98
2017-04-05T01:02:20.952Z,7.32
2017-04-05T01:03:25.796Z,7.02
2017-04-05T01:04:31.189Z,8.25
2017-04-05T01:05:36.196Z,7.13
2017-04-05T01:06:41.601Z,7.92
2017-04-05T01:07:46.389Z,7.95
2017-04-05T01:08:52.019Z,9.08
2017-04-05T01:09:57.475Z,8.32
2017-04-05T01:11:03.065Z,8.07
2017-04-05T01:12:08.389Z,8.23
2017-04-05T01:13:13.880Z,7.97
2017-04-05T01:14:18.813Z,8.05
2017-04-05T01:15:24.505Z,7.87
2017-04-05T01:16:30.119Z,7.13
2017-04-05T01:17:36.388Z,7.73
2017-04-05T01:18:41.966Z,8.47
2017-04-05T01:19:46.737Z,8.10
2017-04-05T01:20:52.469Z,8.77
2017-04-05T01:21:59.348Z,8.45
2017-04-05T01:23:04.600Z,8.93
2017-04-05T01:24:10.026Z,8.48
2017-04-05T01:25:15.695Z,8.25
2017-04-05T01:26:21.188Z,7.75
2017-04-05T01:27:27.704Z,7.85
2017-04-05T01:28:32.473Z,7.55
2017-04-05T01:29:37.949Z,7.42
2017-04-05T01:30:44.305Z,8.05
2017-04-05T01:31:49.105Z,8.03
2017-04-05T01:32:55.577Z,7.92
2017-04-05T01:34:01.200Z,7.23
2017-04-05T01:35:06.888Z,7.60
2017-04-05T01:36:12.472Z,8.33
2017-04-05T01:37:18.000Z,8.18
2017-04-05T01:38:22.902Z,7.83
2017-04-05T01:39:29.081Z,7.63
2017-04-05T01:40:34.049Z,8.58
2017-04-05T01:41:39.653Z,6.67
2017-04-05T01:42:44.329Z,7.77
2017-04-05T01:43:49.928Z,7.10
2017-04-05T01:44:55.566Z,7.47
2017-04-05T01:46:00.257Z,7.25
2017-04-05T01:47:06.628Z,6.85
2017-04-05T01:48:11.432Z,7.50
2017-04-05T01:49:17.024Z,7.70
2017-04-05T01:50:22.607Z,7.70
2017-04-05T01:51:28.308Z,8.00
2017-04-05T01:52:34.678Z,8.23
2017-04-05T01:53:39.482Z,9.48
2017-04-05T01:54:44.176Z,8.50
2017-04-05T01:55:49.852Z,7.72
2017-04-05T01:56:54.644Z,9.55
2017-04-05T01:58:00.940Z,7.23
2017-04-05T01:59:05.837Z,7.50
2017-04-05T02:00:11.431Z,8.30
2017-04-05T02:01:16.204Z,7.80
2017-04-05T02:02:21.808Z,8.20
2017-04-05T02:03:27.317Z,7.65
2017-04-05T02:04:33.648Z,8.20
2017-04-05T02:05:39.240Z,7.65
2017-04-05T02:06:44.083Z,8.33
2017-04-05T02:07:49.768Z,7.98
2017-04-05T02:08:55.360Z,7.92
2017-04-05T02:10:00.937Z,7.33
2017-04-05T02:11:06.493Z,8.13
2017-04-05T02:12:12.011Z,8.28
2017-04-05T02:13:18.369Z,7.90
2017-04-05T02:14:23.160Z,7.33
2017-04-05T02:15:28.715Z,7.45
2017-04-05T02:16:33.572Z,7.55
2017-04-05T02:17:39.760Z,7.72
2017-04-05T02:18:44.644Z,8.12
2017-04-05T02:19:50.242Z,7.13
2017-04-05T02:20:55.655Z,7.97
2017-04-05T02:22:01.921Z,8.12
2017-04-05T02:23:06.768Z,7.72
2017-04-05T02:24:13.137Z,8.37
2017-04-05T02:25:17.961Z,7.73
2017-04-05T02:26:23.380Z,7.67
2017-04-05T02:27:28.990Z,7.13
2017-04-05T02:28:34.608Z,8.12
2017-04-05T02:29:40.169Z,8.35
2017-04-05T02:30:45.817Z,8.35
2017-04-05T02:31:51.484Z,8.20
2017-04-05T02:32:56.944Z,8.90
2017-04-05T02:34:02.532Z,7.50
2017-04-05T02:35:08.825Z,8.15
2017-04-05T02:36:13.484Z,8.57
2017-04-05T02:37:19.784Z,8.62
2017-04-05T02:38:24.580Z,8.42
2017-04-05T02:39:30.910Z,8.50
2017-04-05T02:40:35.733Z,9.30
2017-04-05T02:41:41.344Z,9.13
2017-04-05T02:42:46.817Z,8.77
2017-04-05T02:43:53.276Z,8.75
2017-04-05T02:44:58.030Z,9.18
2017-04-05T02:46:04.401Z,9.48
2017-04-05T02:47:09.935Z,9.75
2017-04-05T02:48:14.725Z,9.40
2017-04-05T02:49:21.018Z,10.32
2017-04-05T02:50:25.844Z,10.23
2017-04-05T02:51:31.226Z,11.85
2017-04-05T02:52:36.796Z,10.70
2017-04-05T02:53:42.397Z,10.42
2017-04-05T02:54:47.885Z,11.62
2017-04-05T02:55:54.185Z,9.50
2017-04-05T02:56:58.884Z,10.65
2017-04-05T02:58:04.508Z,9.62
2017-04-05T02:59:10.796Z,9.83
2017-04-05T03:00:16.433Z,10.65
2017-04-05T03:01:21.202Z,9.97
2017-04-05T03:02:27.475Z,11.35
2017-04-05T03:03:33.209Z,11.52
2017-04-05T03:04:37.979Z,12.23
2017-04-05T03:05:43.613Z,10.57
2017-04-05T03:06:49.241Z,11.10
2017-04-05T03:07:54.760Z,12.80
2017-04-05T03:09:00.585Z,11.72
2017-04-05T03:10:06.768Z,12.37
2017-04-05T03:11:12.337Z,12.33
2017-04-05T03:12:16.993Z,12.17
2017-04-05T03:13:22.544Z,12.07
2017-04-05T03:14:27.313Z,12.68
2017-04-05T03:15:32.997Z,13.90
2017-04-05T03:16:38.508Z,11.88
2017-04-05T03:17:43.160Z,12.98
2017-04-05T03:18:48.769Z,13.78
2017-04-05T03:19:54.196Z,12.22
2017-04-05T03:20:59.081Z,14.22
2017-04-05T03:22:04.740Z,13.60
2017-04-05T03:23:10.256Z,13.18
2017-04-05T03:24:16.501Z,11.50
2017-04-05T03:25:21.497Z,10.57
2017-04-05T03:26:27.073Z,10.20
2017-04-05T03:27:33.481Z,10.20
2017-04-05T03:28:38.292Z,10.83
2017-04-05T03:29:44.530Z,9.02
2017-04-05T03:30:50.265Z,8.70
2017-04-05T03:31:55.077Z,9.12
2017-04-05T03:33:00.654Z,8.83
2017-04-05T03:34:05.445Z,8.82
2017-04-05T03:35:11.045Z,9.28
2017-04-05T03:36:17.366Z,9.42
2017-04-05T03:37:22.176Z,9.50
2017-04-05T03:38:27.752Z,10.27
2017-04-05T03:39:33.347Z,9.45
2017-04-05T03:40:38.969Z,9.98
2017-04-05T03:41:44.429Z,10.70
2017-04-05T03:42:49.884Z,10.28
2017-04-05T03:43:55.611Z,10.62
2017-04-05T03:45:01.140Z,10.35
2017-04-05T03:46:06.652Z,9.27
2017-04-05T03:47:12.151Z,9.60
2017-04-05T03:48:16.873Z,8.85
2017-04-05T03:49:22.574Z,10.43
2017-04-05T03:50:28.850Z,11.57
2017-04-05T03:51:33.637Z,12.32
2017-04-05T03:52:39.261Z,11.58
2017-04-05T03:53:44.841Z,12.07
2017-04-05T03:54:50.401Z,13.02
2017-04-05T03:55:55.876Z,11.23
2017-04-05T03:57:01.481Z,11.65
2017-04-05T03:58:06.257Z,12.32
2017-04-05T03:59:11.830Z,11.83
2017-04-05T04:00:18.184Z,10.93
2017-04-05T04:01:23.830Z,11.52
2017-04-05T04:02:28.568Z,11.35
2017-04-05T04:03:34.937Z,11.52
2017-04-05T04:04:39.860Z,11.67
2017-04-05T04:05:45.545Z,12.22
2017-04-05T04:06:51.084Z,11.95
2017-04-05T04:07:57.456Z,12.22
2017-04-05T04:09:02.198Z,12.13
2017-04-05T04:10:09.305Z,12.50
2017-04-05T04:11:14.421Z,12.73
2017-04-05T04:12:19.201Z,11.43
2017-04-05T04:13:25.069Z,12.88
2017-04-05T04:14:30.439Z,12.47
2017-04-05T04:15:35.856Z,11.78
2017-04-05T04:16:43.380Z,11.83
2017-04-05T04:17:48.230Z,12.58
2017-04-05T04:18:52.953Z,11.50
2017-04-05T04:19:58.560Z,11.97
2017-04-05T04:21:03.300Z,11.93
2017-04-05T04:22:08.957Z,12.23
2017-04-05T04:23:14.521Z,12.33
2017-04-05T04:24:19.928Z,11.55
2017-04-05T04:25:25.529Z,12.30
2017-04-05T04:26:31.064Z,11.48
2017-04-05T04:27:37.789Z,11.12
2017-04-05T04:28:42.500Z,12.27
2017-04-05T04:29:48.734Z,13.13
2017-04-05T04:30:54.352Z,12.25
2017-04-05T04:31:59.141Z,12.58
2017-04-05T04:33:04.888Z,11.93
2017-04-05T04:34:11.190Z,11.42
2017-04-05T04:35:15.884Z,12.10
2017-04-05T04:36:20.551Z,12.17
2017-04-05T04:37:25.243Z,11.93
2017-04-05T04:38:31.685Z,11.88
2017-04-05T04:39:37.333Z,11.60
2017-04-05T04:40:42.155Z,12.58
2017-04-05T04:41:47.609Z,12.20
2017-04-05T04:42:52.284Z,11.78
2017-04-05T04:43:58.480Z,11.47
2017-04-05T04:45:03.249Z,11.58
2017-04-05T04:46:08.833Z,10.12
2017-04-05T04:47:13.588Z,12.00
2017-04-05T04:48:19.141Z,11.77
2017-04-05T04:49:23.797Z,12.25
2017-04-05T04:50:29.204Z,10.80
2017-04-05T04:51:34.700Z,11.38
2017-04-05T04:52:40.285Z,12.10
2017-04-05T04:53:45.040Z,12.40
2017-04-05T04:54:50.536Z,12.57
2017-04-05T04:55:55.280Z,12.22
2017-04-05T04:57:00.802Z,12.03
2017-04-05T04:58:06.249Z,11.32
2017-04-05T04:59:11.097Z,12.28
2017-04-05T05:00:16.740Z,12.43
2017-04-05T05:01:22.141Z,11.90
2017-04-05T05:02:28.508Z,11.85
2017-04-05T05:03:33.322Z,12.67
2017-04-05T05:04:39.693Z,12.72
2017-04-05T05:05:44.527Z,12.57
2017-04-05T05:06:50.853Z,12.15
2017-04-05T05:07:56.478Z,13.10
2017-04-05T05:09:01.986Z,12.53
2017-04-05T05:10:07.477Z,12.45
2017-04-05T05:11:12.159Z,12.28
2017-04-05T05:12:17.718Z,13.40
2017-04-05T05:13:23.653Z,13.53
2017-04-05T05:14:28.944Z,14.60
2017-04-05T05:15:35.346Z,14.88
2017-04-05T05:16:40.121Z,14.15
2017-04-05T05:17:45.692Z,14.28
2017-04-05T05:18:51.085Z,13.45
2017-04-05T05:19:56.698Z,13.20
2017-04-05T05:21:01.385Z,12.43
2017-04-05T05:22:06.898Z,13.47
2017-04-05T05:23:12.520Z,11.48
2017-04-05T05:24:18.704Z,12.33
2017-04-05T05:25:24.469Z,12.18
2017-04-05T05:26:30.149Z,12.75
2017-04-05T05:27:35.856Z,13.05
2017-04-05T05:28:41.380Z,12.35
2017-04-05T05:29:46.216Z,12.40
2017-04-05T05:30:52.574Z,12.75
2017-04-05T05:31:58.211Z,12.47
2017-04-05T05:33:03.156Z,11.98
2017-04-05T05:34:08.606Z,12.92
2017-04-05T05:35:14.232Z,14.60
2017-04-05T05:36:18.978Z,13.70
2017-04-05T05:37:25.567Z,13.75
2017-04-05T05:38:31.306Z,13.50
2017-04-05T05:39:36.808Z,13.23
2017-04-05T05:40:42.261Z,13.00
2017-04-05T05:41:47.856Z,13.92
2017-04-05T05:42:52.629Z,15.92
2017-04-05T05:43:58.348Z,14.30
2017-04-05T05:45:04.674Z,14.85
2017-04-05T05:46:09.444Z,14.08
2017-04-05T05:47:14.957Z,13.60
2017-04-05T05:48:21.401Z,14.30
2017-04-05T05:49:26.237Z,14.00
2017-04-05T05:50:32.465Z,14.10
2017-04-05T05:51:37.238Z,12.73
2017-04-05T05:52:41.956Z,13.72
2017-04-05T05:53:48.288Z,14.23
2017-04-05T05:54:53.517Z,13.62
2017-04-05T05:55:58.791Z,13.18
2017-04-05T05:57:04.982Z,13.45
2017-04-05T05:58:09.845Z,15.30
2017-04-05T05:59:16.264Z,13.98
2017-04-05T06:00:21.888Z,13.87
2017-04-05T06:01:26.660Z,14.67
2017-04-05T06:02:32.882Z,13.75
2017-04-05T06:03:37.453Z,14.88
2017-04-05T06:04:42.865Z,14.58
2017-04-05T06:05:48.396Z,14.95
2017-04-05T06:06:53.182Z,14.33
2017-04-05T06:07:58.787Z,14.05
2017-04-05T06:09:03.701Z,14.93
2017-04-05T06:10:10.574Z,14.80
2017-04-05T06:11:16.362Z,14.60
2017-04-05T06:12:21.218Z,15.10
2017-04-05T06:13:25.980Z,14.87
2017-04-05T06:14:31.513Z,14.93
2017-04-05T06:15:37.040Z,15.25
2017-04-05T06:16:42.556Z,15.45
2017-04-05T06:17:48.100Z,16.72
2017-04-05T06:18:52.853Z,15.27
2017-04-05T06:19:58.400Z,16.88
2017-04-05T06:21:03.952Z,16.83
2017-04-05T06:22:08.717Z,17.38
2017-04-05T06:23:14.364Z,17.38
2017-04-05T06:24:20.700Z,17.03
2017-04-05T06:25:25.693Z,17.10
2017-04-05T06:26:31.868Z,16.40
2017-04-05T06:27:38.362Z,17.95
2017-04-05T06:28:43.169Z,15.62
2017-04-05T06:29:48.740Z,16.05
2017-04-05T06:30:54.365Z,16.67
2017-04-05T06:32:00.886Z,15.73
2017-04-05T06:33:06.429Z,13.72
2017-04-05T06:34:11.893Z,14.33
2017-04-05T06:35:16.702Z,13.73
2017-04-05T06:36:22.284Z,14.02
2017-04-05T06:37:27.901Z,14.28
2017-04-05T06:38:33.427Z,13.80
2017-04-05T06:39:38.093Z,13.30
2017-04-05T06:40:43.784Z,14.72
2017-04-05T06:41:50.063Z,14.33
2017-04-05T06:42:54.997Z,13.98
2017-04-05T06:44:00.578Z,13.88
2017-04-05T06:45:06.860Z,13.18
2017-04-05T06:46:11.757Z,14.02
2017-04-05T06:47:18.168Z,15.38
2017-04-05T06:48:23.672Z,15.08
2017-04-05T06:49:28.621Z,14.75
2017-04-05T06:50:34.229Z,14.93
2017-04-05T06:51:39.649Z,14.33
2017-04-05T06:52:44.340Z,14.85
2017-04-05T06:53:50.713Z,14.60
2017-04-05T06:54:55.589Z,15.42
2017-04-05T06:56:00.228Z,14.87
2017-04-05T06:57:04.908Z,15.62
2017-04-05T06:58:10.537Z,16.17
2017-04-05T06:59:16.161Z,15.45
2017-04-05T07:00:23.581Z,15.63
2017-04-05T07:01:28.446Z,16.68
2017-04-05T07:02:34.832Z,15.65
2017-04-05T07:03:39.625Z,17.00
2017-04-05T07:04:45.205Z,17.28
2017-04-05T07:05:51.684Z,16.25
2017-04-05T07:06:57.905Z,16.40
2017-04-05T07:08:02.954Z,16.42
2017-04-05T07:09:08.428Z,17.53
2017-04-05T07:10:13.117Z,17.62
2017-04-05T07:11:18.760Z,17.33
2017-04-05T07:12:24.949Z,17.92
2017-04-05T07:13:30.633Z,17.10
2017-04-05T07:14:35.344Z,16.05
2017-04-05T07:15:41.662Z,16.05
2017-04-05T07:16:47.130Z,15.87
2017-04-05T07:17:51.886Z,15.73
2017-04-05T07:18:56.766Z,16.33
2017-04-05T07:20:03.089Z,16.25
2017-04-05T07:21:07.784Z,17.02
2017-04-05T07:22:13.408Z,15.65
2017-04-05T07:23:18.970Z,17.65
2017-04-05T07:24:23.821Z,17.15
2017-04-05T07:25:30.116Z,16.82
2017-04-05T07:26:35.708Z,17.10
2017-04-05T07:27:42.313Z,17.65
2017-04-05T07:28:47.112Z,16.95
2017-04-05T07:29:51.710Z,18.00
2017-04-05T07:30:56.537Z,19.13
2017-04-05T07:32:02.977Z,17.20
2017-04-05T07:33:07.681Z,17.30
2017-04-05T07:34:13.144Z,19.37
2017-04-05T07:35:18.481Z,17.80
2017-04-05T07:36:23.136Z,19.63
2017-04-05T07:37:28.593Z,17.53
2017-04-05T07:38:34.220Z,18.93
2017-04-05T07:39:39.885Z,17.62
2017-04-05T07:40:46.281Z,18.98
2017-04-05T07:41:51.081Z,19.25
2017-04-05T07:42:55.788Z,16.77
2017-04-05T07:44:02.303Z,19.35
2017-04-05T07:45:07.741Z,19.13
2017-04-05T07:46:12.541Z,19.07
2017-04-05T07:47:18.194Z,19.13
2017-04-05T07:48:23.688Z,18.80
2017-04-05T07:49:30.048Z,19.92
2017-04-05T07:50:35.633Z,18.75
2017-04-05T07:51:41.165Z,18.33
2017-04-05T07:52:45.957Z,18.38
2017-04-05T07:53:52.313Z,19.50
2017-04-05T07:54:57.309Z,19.87
2017-04-05T07:56:02.747Z,18.85
2017-04-05T07:57:07.381Z,19.15
2017-04-05T07:58:12.776Z,19.42
2017-04-05T07:59:17.508Z,18.08
2017-04-05T08:00:22.209Z,18.43
2017-04-05T08:01:28.540Z,19.60
2017-04-05T08:02:33.478Z,20.28
2017-04-05T08:03:39.038Z,19.67
2017-04-05T08:04:43.814Z,21.07
2017-04-05T08:05:49.409Z,20.23
2017-04-05T08:06:54.152Z,22.32
2017-04-05T08:07:59.625Z,22.52
2017-04-05T08:09:06.645Z,22.68
2017-04-05T08:10:12.648Z,20.98
2017-04-05T08:11:17.365Z,20.97
2017-04-05T08:12:22.921Z,20.60
2017-04-05T08:13:27.541Z,19.55
2017-04-05T08:14:32.268Z,20.87
2017-04-05T08:15:37.885Z,21.00
2017-04-05T08:16:44.222Z,21.22
2017-04-05T08:17:49.041Z,20.78
2017-04-05T08:18:54.646Z,20.90
2017-04-05T08:19:59.292Z,21.62
2017-04-05T08:21:03.945Z,20.07
2017-04-05T08:22:10.390Z,21.13
2017-04-05T08:23:15.748Z,22.30
2017-04-05T08:24:20.672Z,20.45
2017-04-05T08:25:27.813Z,21.32
2017-04-05T08:26:32.961Z,20.63
2017-04-05T08:27:38.613Z,21.60
2017-04-05T08:28:44.909Z,20.32
2017-04-05T08:29:49.733Z,21.33
2017-04-05T08:30:56.041Z,22.03
2017-04-05T08:32:00.906Z,20.37
2017-04-05T08:33:06.513Z,21.20
2017-04-05T08:34:12.728Z,22.07
2017-04-05T08:35:17.385Z,21.75
2017-04-05T08:36:23.814Z,21.62
2017-04-05T08:37:29.432Z,21.83
2017-04-05T08:38:34.269Z,21.38
2017-04-05T08:39:40.549Z,21.25
2017-04-05T08:40:46.145Z,22.07
2017-04-05T08:41:51.698Z,21.13
2017-04-05T08:42:56.368Z,23.58
2017-04-05T08:44:02.150Z,24.27
2017-04-05T08:45:07.352Z,23.97
2017-04-05T08:46:12.116Z,21.70
2017-04-05T08:47:17.773Z,22.83
2017-04-05T08:48:23.317Z,22.78
2017-04-05T08:49:28.873Z,24.48
2017-04-05T08:50:35.013Z,21.83
2017-04-05T08:51:39.933Z,24.45
2017-04-05T08:52:45.608Z,23.70
2017-04-05T08:53:50.252Z,23.93
2017-04-05T08:54:55.810Z,24.17
2017-04-05T08:56:00.572Z,23.47
2017-04-05T08:57:06.105Z,24.48
2017-04-05T08:58:11.621Z,24.68
2017-04-05T08:59:17.981Z,23.98
2017-04-05T09:00:24.594Z,23.70
2017-04-05T09:01:29.377Z,22.93
2017-04-05T09:02:34.042Z,26.40
2017-04-05T09:03:39.509Z,26.05
2017-04-05T09:04:45.029Z,24.38
2017-04-05T09:05:51.257Z,26.02
2017-04-05T09:06:56.945Z,25.07
2017-04-05T09:08:01.678Z,26.50
2017-04-05T09:09:08.062Z,25.32
2017-04-05T09:10:12.706Z,25.33
2017-04-05T09:11:18.464Z,26.78
2017-04-05T09:12:24.058Z,25.35
2017-04-05T09:13:30.356Z,26.65
2017-04-05T09:14:35.038Z,25.73
2017-04-05T09:15:40.617Z,26.23
2017-04-05T09:16:45.304Z,26.62
2017-04-05T09:17:51.669Z,27.53
2017-04-05T09:18:56.465Z,28.25
2017-04-05T09:20:01.984Z,29.28
2017-04-05T09:21:07.603Z,28.25
2017-04-05T09:22:14.038Z,30.05
2017-04-05T09:23:19.485Z,29.52
2017-04-05T09:24:24.386Z,29.10
2017-04-05T09:25:29.101Z,28.02
2017-04-05T09:26:34.544Z,29.45
2017-04-05T09:27:40.913Z,30.33
2017-04-05T09:28:45.612Z,29.00
2017-04-05T09:29:50.437Z,29.37
2017-04-05T09:30:55.941Z,29.27
2017-04-05T09:32:01.421Z,28.42
2017-04-05T09:33:07.028Z,28.37
2017-04-05T09:34:13.204Z,29.75
2017-04-05T09:35:18.887Z,27.78
2017-04-05T09:36:23.562Z,30.37
2017-04-05T09:37:29.169Z,30.22
2017-04-05T09:38:35.459Z,28.63
2017-04-05T09:39:40.505Z,28.97
2017-04-05T09:40:45.968Z,30.53
2017-04-05T09:41:51.429Z,27.22
2017-04-05T09:42:57.798Z,28.23
2017-04-05T09:44:02.689Z,29.17
2017-04-05T09:45:08.241Z,27.32
2017-04-05T09:46:15.161Z,26.50
2017-04-05T09:47:20.154Z,25.53
2017-04-05T09:48:25.639Z,26.02
2017-04-05T09:49:31.252Z,24.57
2017-04-05T09:50:37.606Z,27.52
2017-04-05T09:51:42.364Z,26.50
2017-04-05T09:52:47.888Z,28.85
2017-04-05T09:53:54.173Z,28.27
2017-04-05T09:54:59.121Z,27.18
2017-04-05T09:56:04.656Z,26.35
2017-04-05T09:57:10.268Z,26.63
2017-04-05T09:58:15.844Z,29.52
2017-04-05T09:59:22.165Z,28.63
2017-04-05T10:00:28.687Z,29.00
2017-04-05T10:01:33.489Z,26.90
2017-04-05T10:02:39.820Z,27.55
2017-04-05T10:03:45.417Z,27.38
2017-04-05T10:04:50.345Z,28.20
2017-04-05T10:05:56.776Z,28.90
2017-04-05T10:07:02.261Z,29.45
2017-04-05T10:08:07.764Z,28.62
2017-04-05T10:09:13.451Z,27.87
2017-04-05T10:10:18.302Z,26.80
2017-04-05T10:11:23.831Z,27.22
2017-04-05T10:12:29.468Z,24.78
2017-04-05T10:13:34.944Z,26.43
2017-04-05T10:14:40.479Z,26.22
2017-04-05T10:15:46.816Z,27.75
2017-04-05T10:16:51.654Z,26.35
2017-04-05T10:17:56.377Z,27.17
2017-04-05T10:19:01.981Z,27.18
2017-04-05T10:20:07.548Z,26.85
2017-04-05T10:21:12.225Z,28.45
2017-04-05T10:22:17.750Z,25.77
2017-04-05T10:23:23.254Z,26.35
2017-04-05T10:24:28.717Z,26.68
2017-04-05T10:25:34.953Z,27.17
2017-04-05T10:26:40.577Z,25.62
2017-04-05T10:27:45.373Z,25.95
2017-04-05T10:28:50.876Z,26.53
2017-04-05T10:29:55.545Z,24.93
2017-04-05T10:31:01.833Z,26.12
2017-04-05T10:32:06.668Z,27.23
2017-04-05T10:33:12.340Z,26.60
2017-04-05T10:34:18.637Z,26.37
2017-04-05T10:35:23.345Z,27.50
2017-04-05T10:36:29.696Z,26.65
2017-04-05T10:37:35.330Z,27.12
2017-04-05T10:38:40.045Z,25.50
2017-04-05T10:39:45.553Z,26.63
2017-04-05T10:40:51.864Z,26.73
2017-04-05T10:41:57.432Z,25.43
2017-04-05T10:43:02.186Z,24.82
2017-04-05T10:44:08.733Z,25.50
2017-04-05T10:45:14.317Z,26.13
2017-04-05T10:46:19.676Z,23.78
2017-04-05T10:47:26.265Z,23.80
2017-04-05T10:48:31.776Z,24.90
2017-04-05T10:49:38.163Z,25.13
2017-04-05T10:50:43.044Z,24.83
2017-04-05T10:51:48.609Z,25.42
2017-04-05T10:52:53.252Z,24.47
2017-04-05T10:53:59.629Z,24.48
2017-04-05T10:55:04.522Z,23.62
2017-04-05T10:56:09.960Z,24.88
2017-04-05T10:57:15.480Z,23.80
2017-04-05T10:58:21.085Z,25.52
2017-04-05T10:59:26.621Z,24.83
2017-04-05T11:00:34.037Z,27.10
2017-04-05T11:01:39.641Z,25.73
2017-04-05T11:02:45.973Z,25.70
2017-04-05T11:03:50.989Z,25.52
2017-04-05T11:04:56.429Z,26.50
2017-04-05T11:06:02.165Z,26.03
2017-04-05T11:07:06.882Z,26.60
2017-04-05T11:08:12.344Z,26.65
2017-04-05T11:09:17.774Z,25.85
2017-04-05T11:10:22.459Z,25.20
2017-04-05T11:11:28.933Z,25.77
2017-04-05T11:12:33.597Z,24.95
2017-04-05T11:13:39.129Z,28.17
2017-04-05T11:14:43.838Z,24.95
2017-04-05T11:15:50.177Z,26.68
2017-04-05T11:16:54.995Z,26.25
2017-04-05T11:18:01.322Z,25.48
2017-04-05T11:19:06.157Z,26.27
2017-04-05T11:20:11.637Z,25.68
2017-04-05T11:21:17.209Z,24.85
2017-04-05T11:22:22.821Z,25.80
2017-04-05T11:23:28.422Z,27.08
2017-04-05T11:24:33.828Z,24.22
2017-04-05T11:25:38.612Z,25.05
2017-04-05T11:26:43.338Z,25.00
2017-04-05T11:27:50.641Z,24.90
2017-04-05T11:28:55.445Z,25.78
2017-04-05T11:30:01.021Z,23.77
2017-04-05T11:31:06.477Z,24.77
2017-04-05T11:32:11.347Z,26.22
2017-04-05T11:33:16.993Z,24.48
2017-04-05T11:34:22.181Z,24.23
2017-04-05T11:35:28.512Z,24.22
2017-04-05T11:36:34.117Z,24.03
2017-04-05T11:37:39.731Z,23.65
2017-04-05T11:38:46.072Z,25.00
2017-04-05T11:39:51.068Z,23.85
2017-04-05T11:40:57.408Z,24.40
2017-04-05T11:42:02.174Z,25.23
2017-04-05T11:43:07.701Z,22.93
2017-04-05T11:44:13.229Z,25.18
2017-04-05T11:45:18.741Z,24.65
2017-04-05T11:46:24.304Z,23.70
2017-04-05T11:47:29.896Z,25.28
2017-04-05T11:48:35.492Z,24.53
2017-04-05T11:49:41.121Z,26.12
2017-04-05T11:50:47.521Z,21.93
2017-04-05T11:51:53.140Z,22.82
2017-04-05T11:52:58.076Z,24.90
2017-04-05T11:54:03.760Z,24.58
2017-04-05T11:55:09.984Z,25.50
2017-04-05T11:56:14.833Z,24.92
2017-04-05T11:57:20.373Z,25.13
2017-04-05T11:58:25.035Z,24.97
2017-04-05T11:59:31.428Z,22.73
2017-04-05T12:00:36.397Z,22.33
2017-04-05T12:01:41.858Z,21.30
2017-04-05T12:02:48.203Z,21.45
2017-04-05T12:03:53.060Z,21.28
2017-04-05T12:04:59.297Z,20.67
2017-04-05T12:06:04.127Z,22.20
2017-04-05T12:07:10.505Z,21.75
2017-04-05T12:08:15.372Z,22.63
2017-04-05T12:09:20.837Z,21.18
2017-04-05T12:10:27.097Z,23.00
2017-04-05T12:11:32.028Z,22.00
2017-04-05T12:12:36.692Z,21.60
2017-04-05T12:13:42.360Z,22.45
2017-04-05T12:14:47.781Z,22.40
2017-04-05T12:15:53.333Z,23.70
2017-04-05T12:16:58.065Z,21.98
2017-04-05T12:18:04.267Z,23.37
2017-04-05T12:19:09.062Z,23.30
2017-04-05T12:20:14.606Z,21.83
2017-04-05T12:21:20.117Z,21.57
2017-04-05T12:22:25.177Z,22.57
2017-04-05T12:23:30.641Z,22.92
2017-04-05T12:24:36.261Z,23.93
2017-04-05T12:25:41.797Z,23.02
2017-04-05T12:26:48.062Z,22.80
2017-04-05T12:27:53.052Z,22.48
2017-04-05T12:28:58.601Z,21.47
2017-04-05T12:30:04.137Z,20.47
2017-04-05T12:31:09.620Z,21.37
2017-04-05T12:32:15.202Z,21.30
2017-04-05T12:33:20.814Z,21.95
2017-04-05T12:34:26.173Z,21.87
2017-04-05T12:35:31.786Z,21.28
2017-04-05T12:36:37.325Z,20.68
2017-04-05T12:37:43.527Z,20.05
2017-04-05T12:38:48.448Z,21.30
2017-04-05T12:39:53.778Z,21.22
2017-04-05T12:41:00.152Z,20.87
2017-04-05T12:42:05.034Z,20.48
2017-04-05T12:45:23.758Z,20.40
2017-04-05T12:46:29.225Z,21.40
2017-04-05T12:47:34.688Z,20.82
2017-04-05T12:48:39.377Z,21.90
2017-04-05T12:49:45.038Z,20.17
2017-04-05T12:50:51.333Z,21.27
2017-04-05T12:51:56.948Z,18.72
2017-04-05T12:53:01.810Z,19.60
2017-04-05T12:54:06.468Z,19.65
2017-04-05T12:55:11.988Z,19.43
2017-04-05T12:56:17.449Z,19.72
2017-04-05T12:57:22.272Z,21.80
2017-04-05T12:58:27.741Z,19.65
2017-04-05T12:59:34.130Z,21.37
2017-04-05T13:00:39.901Z,20.95
2017-04-05T13:01:45.444Z,20.50
2017-04-05T13:02:50.987Z,19.35
2017-04-05T13:03:55.770Z,19.15
2017-04-05T13:05:01.972Z,16.97
2017-04-05T13:06:07.008Z,19.23
2017-04-05T13:07:12.552Z,19.33
2017-04-05T13:08:17.376Z,18.23
2017-04-05T13:09:23.701Z,18.25
2017-04-05T13:10:28.645Z,17.97
2017-04-05T13:11:34.998Z,19.42
2017-04-05T13:12:39.730Z,23.52
2017-04-05T13:13:46.039Z,19.58
2017-04-05T13:14:50.737Z,17.62
2017-04-05T13:15:55.365Z,18.03
2017-04-05T13:17:00.234Z,17.35
2017-04-05T13:18:05.640Z,19.12
2017-04-05T13:19:11.217Z,18.38
2017-04-05T13:20:17.514Z,18.53
2017-04-05T13:21:22.300Z,18.38
2017-04-05T13:22:27.732Z,17.68
2017-04-05T13:23:34.120Z,17.85
2017-04-05T13:24:38.901Z,18.37
2017-04-05T13:25:44.340Z,15.82
2017-04-05T13:26:49.165Z,17.63
2017-04-05T13:27:55.440Z,16.53
2017-04-05T13:29:00.202Z,17.40
2017-04-05T13:30:05.831Z,18.18
2017-04-05T13:31:12.208Z,17.98
2017-04-05T13:32:18.645Z,17.38
2017-04-05T13:33:24.365Z,17.92
2017-04-05T13:34:28.993Z,18.20
2017-04-05T13:35:34.524Z,18.05
2017-04-05T13:36:40.166Z,18.07
2017-04-05T13:37:45.559Z,18.95
2017-04-05T13:38:51.965Z,16.28
2017-04-05T13:39:56.772Z,18.25
2017-04-05T13:41:02.325Z,17.17
2017-04-05T13:42:08.693Z,16.75
2017-04-05T13:43:14.271Z,18.38
2017-04-05T13:44:19.223Z,17.27
2017-04-05T13:45:24.608Z,17.85
2017-04-05T13:46:30.805Z,17.00
2017-04-05T13:47:35.556Z,16.72
2017-04-05T13:48:40.244Z,16.03
2017-04-05T13:49:45.872Z,17.13
2017-04-05T13:50:51.357Z,15.80
2017-04-05T13:51:56.752Z,18.90
2017-04-05T13:53:02.359Z,17.65
2017-04-05T13:54:07.940Z,17.73
2017-04-05T13:55:13.510Z,16.85
2017-04-05T13:56:19.756Z,18.70
2017-04-05T13:57:24.393Z,17.42
2017-04-05T13:58:29.935Z,18.42
2017-04-05T13:59:35.553Z,17.83
2017-04-05T14:00:43.062Z,19.47
2017-04-05T14:01:48.817Z,19.23
2017-04-05T14:02:55.141Z,19.20
2017-04-05T14:03:59.957Z,22.17
2017-04-05T14:05:04.609Z,20.75
2017-04-05T14:06:10.992Z,18.92
2017-04-05T14:07:15.904Z,18.32
2017-04-05T14:08:21.352Z,17.93
2017-04-05T14:09:27.636Z,17.80
2017-04-05T14:10:35.358Z,17.63
2017-04-05T14:11:41.322Z,16.70
2017-04-05T14:12:46.531Z,18.13